Terminal Aerodrome Forecast
Issued by NWS

Home | Current Version | Previous Version | Text Only | Print | Product List | Glossary On
Versions: 1 2 3 4 5 6 7 8 9 10 11 12 13 14 15 16
597
FTUS43 KOAX 301740
TAFBFF
TAF
KBFF 301740Z 3018/3118 28010KT P6SM FEW250
     FM302000 28011KT P6SM VCTS BKN250CB
     FM310100 34009KT P6SM BKN250
     FM310800 35009KT P6SM SCT070
     FM311300 32008KT P6SM SCT060=

USA.gov is the U.S. government's official web portal to all federal, state and local government web resources and services.